Time,TemperatureF,DewpointF,PressureIn,WindDirection,WindDirectionDegrees,WindSpeedMPH,WindSpeedGustMPH,Humidity,HourlyPrecipIn,Conditions,Clouds,dailyrainin,SoftwareType,DateUTC
2013-06-05 00:03:00,66.0,66.0,30.06,SSE,161,0.0,0.0,100,0.00,,,0.00,,2013-06-05 04:03:00,
2013-06-05 00:13:00,66.0,66.0,30.06,SSE,161,0.0,0.0,100,0.00,,,0.00,,2013-06-05 04:13:00,
2013-06-05 00:23:00,66.0,66.0,30.06,SSE,161,0.0,0.0,100,0.00,,,0.00,,2013-06-05 04:23:00,
2013-06-05 00:33:00,66.0,66.0,30.06,SSE,161,0.0,0.0,100,0.00,,,0.00,,2013-06-05 04:33:00,
2013-06-05 01:32:00,64.0,64.0,30.05,SSE,161,0.0,0.0,100,0.00,,,0.00,,2013-06-05 05:32:00,
2013-06-05 01:40:00,64.0,64.0,30.04,SSE,161,0.0,0.0,100,0.00,,,0.00,,2013-06-05 05:40:00,
2013-06-05 01:42:00,64.0,64.0,30.05,SSE,161,0.0,0.0,100,0.00,,,0.00,,2013-06-05 05:42:00,
2013-06-05 01:53:00,64.0,64.0,30.05,SSE,161,0.0,0.0,100,0.00,,,0.00,,2013-06-05 05:53:00,
2013-06-05 02:02:00,64.0,64.0,30.04,SSE,161,0.0,0.0,100,0.00,,,0.00,,2013-06-05 06:02:00,
2013-06-05 02:12:00,64.0,64.0,30.04,SSE,161,0.0,0.0,100,0.00,,,0.00,,2013-06-05 06:12:00,
2013-06-05 02:22:00,64.0,64.0,30.04,SSE,161,0.0,0.0,100,0.00,,,0.00,,2013-06-05 06:22:00,
2013-06-05 02:32:00,64.0,64.0,30.04,SSE,161,0.0,0.0,100,0.00,,,0.00,,2013-06-05 06:32:00,
2013-06-05 03:20:00,63.0,63.0,30.05,SSE,161,0.0,0.0,100,0.00,,,0.00,,2013-06-05 07:20:00,
2013-06-05 03:22:00,63.0,63.0,30.04,SSE,161,0.0,0.0,100,0.00,,,0.00,,2013-06-05 07:22:00,
2013-06-05 03:32:00,63.0,63.0,30.05,SSE,161,0.0,0.0,100,0.00,,,0.00,,2013-06-05 07:32:00,
2013-06-05 03:42:00,63.0,63.0,30.05,SSE,161,0.0,0.0,100,0.00,,,0.00,,2013-06-05 07:42:00,
2013-06-05 03:52:00,63.0,63.0,30.05,SSE,161,0.0,0.0,100,0.00,,,0.00,,2013-06-05 07:52:00,
2013-06-05 04:02:00,63.0,63.0,30.05,SSE,161,0.0,0.0,100,0.00,,,0.00,,2013-06-05 08:02:00,
2013-06-05 04:10:00,62.0,62.0,30.06,SSE,161,0.0,0.0,100,0.00,,,0.00,,2013-06-05 08:10:00,
2013-06-05 04:12:00,63.0,63.0,30.05,SSE,161,0.0,0.0,100,0.00,,,0.00,,2013-06-05 08:12:00,
2013-06-05 04:32:00,62.0,62.0,30.06,SSE,161,0.0,0.0,100,0.00,,,0.00,,2013-06-05 08:32:00,
2013-06-05 04:42:00,62.0,62.0,30.06,SSE,161,0.0,0.0,100,0.00,,,0.00,,2013-06-05 08:42:00,
2013-06-05 04:52:00,62.0,62.0,30.06,SSE,161,0.0,0.0,100,0.00,,,0.00,,2013-06-05 08:52:00,
2013-06-05 05:02:00,62.0,62.0,30.06,SSE,161,0.0,0.0,100,0.00,,,0.00,,2013-06-05 09:02:00,
2013-06-05 05:50:00,62.0,62.0,30.06,SSE,161,0.0,0.0,100,0.00,,,0.00,,2013-06-05 09:50:00,
2013-06-05 06:03:00,62.0,62.0,30.06,SSE,161,0.0,0.0,100,0.00,,,0.00,,2013-06-05 10:03:00,
2013-06-05 06:13:00,62.0,62.0,30.06,SSE,161,0.0,0.0,100,0.00,,,0.00,,2013-06-05 10:13:00,
2013-06-05 06:22:00,62.0,62.0,30.06,SSE,161,0.0,0.0,100,0.00,,,0.00,,2013-06-05 10:22:00,
2013-06-05 06:33:00,62.0,62.0,30.06,SSE,161,0.0,0.0,100,0.00,,,0.00,,2013-06-05 10:33:00,
2013-06-05 06:40:00,61.0,61.0,30.07,SSE,161,0.0,0.0,100,0.00,,,0.00,,2013-06-05 10:40:00,
2013-06-05 06:42:00,62.0,62.0,30.06,SSE,161,0.0,0.0,100,0.00,,,0.00,,2013-06-05 10:42:00,
2013-06-05 07:02:00,61.0,61.0,30.07,SSE,161,0.0,0.0,100,0.00,,,0.00,,2013-06-05 11:02:00,
2013-06-05 07:13:00,61.0,61.0,30.07,SSE,161,0.0,0.0,100,0.00,,,0.00,,2013-06-05 11:13:00,
2013-06-05 07:22:00,61.0,61.0,30.07,SSE,161,0.0,0.0,100,0.00,,,0.00,,2013-06-05 11:22:00,
2013-06-05 07:33:00,61.0,61.0,30.07,SSE,161,0.0,0.0,100,0.00,,,0.00,,2013-06-05 11:33:00,
2013-06-05 07:50:00,63.0,63.0,30.08,SSE,161,0.0,0.0,100,0.00,,,0.00,,2013-06-05 11:50:00,
2013-06-05 07:52:00,62.0,62.0,30.07,SSE,161,0.0,0.0,100,0.00,,,0.00,,2013-06-05 11:52:00,
2013-06-05 08:02:00,63.0,63.0,30.08,SSE,161,0.0,0.0,100,0.00,,,0.00,,2013-06-05 12:02:00,
2013-06-05 08:12:00,63.0,63.0,30.08,SSE,161,0.0,0.0,100,0.00,,,0.00,,2013-06-05 12:12:00,
2013-06-05 08:22:00,63.0,63.0,30.08,SSE,161,0.0,0.0,100,0.00,,,0.00,,2013-06-05 12:22:00,
2013-06-05 08:32:00,63.0,63.0,30.08,SSE,161,0.0,0.0,100,0.00,,,0.00,,2013-06-05 12:32:00,
2013-06-05 08:44:00,63.0,63.0,30.08,SSE,161,0.0,0.0,100,0.00,,,0.00,,2013-06-05 12:44:00,
2013-06-05 10:30:00,74.0,72.0,30.06,SSE,161,0.0,0.0,93,0.00,,,0.00,,2013-06-05 14:30:00,
2013-06-05 10:42:00,74.0,72.0,30.06,SSE,161,0.0,0.0,93,0.00,,,0.00,,2013-06-05 14:42:00,
2013-06-05 10:52:00,74.0,72.0,30.06,SSE,161,0.0,0.0,93,0.00,,,0.00,,2013-06-05 14:52:00,
2013-06-05 11:03:00,74.0,72.0,30.06,SSE,161,0.0,0.0,93,0.00,,,0.00,,2013-06-05 15:03:00,
2013-06-05 11:12:00,74.0,72.0,30.06,SSE,161,0.0,0.0,93,0.00,,,0.00,,2013-06-05 15:12:00,
2013-06-05 11:22:00,74.0,72.0,30.06,SSE,161,0.0,0.0,93,0.00,,,0.00,,2013-06-05 15:22:00,
2013-06-05 14:02:00,84.0,69.0,30.02,SSE,161,0.0,0.0,60,0.00,,,0.00,,2013-06-05 18:02:00,
2013-06-05 14:10:00,85.0,69.0,30.00,North,0,0.0,0.0,59,0.00,,,0.00,,2013-06-05 18:10:00,
2013-06-05 14:13:00,84.0,69.0,30.02,SSE,161,0.0,0.0,60,0.00,,,0.00,,2013-06-05 18:13:00,
2013-06-05 14:23:00,84.0,69.0,30.02,SSE,161,0.0,0.0,60,0.00,,,0.00,,2013-06-05 18:23:00,
2013-06-05 14:32:00,85.0,69.0,30.00,North,0,0.0,0.0,59,0.00,,,0.00,,2013-06-05 18:32:00,
2013-06-05 14:42:00,85.0,69.0,30.00,North,0,0.0,0.0,59,0.00,,,0.00,,2013-06-05 18:42:00,
2013-06-05 14:52:00,85.0,69.0,30.00,North,0,0.0,0.0,59,0.00,,,0.00,,2013-06-05 18:52:00,
2013-06-05 15:03:00,85.0,69.0,30.00,North,0,0.0,0.0,59,0.00,,,0.00,,2013-06-05 19:03:00,
2013-06-05 15:40:00,85.0,70.0,29.97,North,0,0.0,0.0,60,0.00,,,0.00,,2013-06-05 19:40:00,
2013-06-05 15:42:00,85.0,69.0,29.98,North,0,0.0,0.0,59,0.00,,,0.00,,2013-06-05 19:42:00,
2013-06-05 15:53:00,85.0,69.0,29.98,North,0,0.0,0.0,59,0.00,,,0.00,,2013-06-05 19:53:00,
2013-06-05 16:03:00,85.0,70.0,29.97,North,0,0.0,0.0,60,0.00,,,0.00,,2013-06-05 20:03:00,
2013-06-05 16:12:00,85.0,70.0,29.97,North,0,0.0,0.0,60,0.00,,,0.00,,2013-06-05 20:12:00,
2013-06-05 16:23:00,85.0,70.0,29.97,North,0,0.0,0.0,60,0.00,,,0.00,,2013-06-05 20:23:00,
2013-06-05 16:32:00,85.0,70.0,29.97,North,0,0.0,0.0,60,0.00,,,0.00,,2013-06-05 20:32:00,
2013-06-05 16:40:00,80.0,68.0,29.96,SSE,161,0.0,0.0,68,0.00,,,0.00,,2013-06-05 20:40:00,
2013-06-05 17:02:00,80.0,68.0,29.96,SSE,161,0.0,0.0,68,0.00,,,0.00,,2013-06-05 21:02:00,
2013-06-05 17:12:00,80.0,68.0,29.96,SSE,161,0.0,0.0,68,0.00,,,0.00,,2013-06-05 21:12:00,
2013-06-05 17:22:00,80.0,68.0,29.96,SSE,161,0.0,0.0,68,0.00,,,0.00,,2013-06-05 21:22:00,
2013-06-05 17:33:00,80.0,68.0,29.96,SSE,161,0.0,0.0,68,0.00,,,0.00,,2013-06-05 21:33:00,
2013-06-05 17:50:00,69.0,69.0,29.99,West,270,0.0,0.0,100,0.85,,,0.97,,2013-06-05 21:50:00,
2013-06-05 18:03:00,69.0,69.0,29.99,West,270,0.0,0.0,100,0.85,,,0.97,,2013-06-05 22:03:00,
2013-06-05 18:13:00,69.0,69.0,29.99,West,270,0.0,0.0,100,0.85,,,0.97,,2013-06-05 22:13:00,
2013-06-05 18:22:00,69.0,69.0,29.99,West,270,0.0,0.0,100,0.85,,,0.97,,2013-06-05 22:22:00,
2013-06-05 18:33:00,69.0,69.0,29.99,West,270,0.0,0.0,100,0.85,,,0.97,,2013-06-05 22:33:00,
2013-06-05 18:42:00,69.0,69.0,29.99,West,270,0.0,0.0,100,0.85,,,0.97,,2013-06-05 22:42:00,
2013-06-05 21:00:00,68.0,68.0,29.98,West,270,0.0,0.0,100,0.00,,,1.01,,2013-06-06 01:00:00,
2013-06-05 21:02:00,68.0,68.0,29.98,West,270,0.0,0.0,100,0.00,,,1.01,,2013-06-06 01:02:00,
2013-06-05 21:13:00,68.0,68.0,29.98,West,270,0.0,0.0,100,0.00,,,1.01,,2013-06-06 01:13:00,
2013-06-05 21:32:00,68.0,68.0,29.98,West,270,0.0,0.0,100,0.00,,,1.01,,2013-06-06 01:32:00,
2013-06-05 21:42:00,68.0,68.0,29.98,West,270,0.0,0.0,100,0.00,,,1.01,,2013-06-06 01:42:00,
2013-06-05 21:52:00,68.0,68.0,29.98,West,270,0.0,0.0,100,0.00,,,1.01,,2013-06-06 01:52:00,
2013-06-05 23:30:00,67.0,67.0,29.99,West,270,0.0,0.0,100,0.00,,,1.01,,2013-06-06 03:30:00,
2013-06-05 23:33:00,67.0,67.0,29.99,West,270,0.0,0.0,100,0.00,,,1.01,,2013-06-06 03:33:00,
2013-06-05 23:43:00,67.0,67.0,29.99,West,270,0.0,0.0,100,0.00,,,1.01,,2013-06-06 03:43:00,
2013-06-05 23:53:00,67.0,67.0,29.99,West,270,0.0,0.0,100,0.00,,,1.01,,2013-06-06 03:53:00,